sensor_id;sensor_type;location;lat;lon;timestamp;P1;durP1;ratioP1;P2;durP2;ratioP2
19111;SDS011;9688;51.906;8.376;2023-01-10T00:02:05;3.20;;;1.90;;
19111;SDS011;9688;51.906;8.376;2023-01-10T00:04:50;3.90;;;2.40;;
19111;SDS011;9688;51.906;8.376;2023-01-10T00:07:37;6.10;;;2.03;;
19111;SDS011;9688;51.906;8.376;2023-01-10T00:10:23;3.80;;;2.20;;
19111;SDS011;9688;51.906;8.376;2023-01-10T00:13:13;3.83;;;2.40;;
19111;SDS011;9688;51.906;8.376;2023-01-10T00:16:08;7.43;;;2.53;;
19111;SDS011;9688;51.906;8.376;2023-01-10T00:18:53;6.33;;;3.07;;
19111;SDS011;9688;51.906;8.376;2023-01-10T00:21:39;6.63;;;3.20;;
19111;SDS011;9688;51.906;8.376;2023-01-10T00:24:28;4.87;;;2.53;;
19111;SDS011;9688;51.906;8.376;2023-01-10T00:27:13;6.63;;;3.13;;
19111;SDS011;9688;51.906;8.376;2023-01-10T00:30:04;7.70;;;3.80;;
19111;SDS011;9688;51.906;8.376;2023-01-10T00:32:57;7.10;;;3.97;;
19111;SDS011;9688;51.906;8.376;2023-01-10T00:35:45;8.50;;;3.43;;
19111;SDS011;9688;51.906;8.376;2023-01-10T00:38:32;7.43;;;4.00;;
19111;SDS011;9688;51.906;8.376;2023-01-10T00:41:21;6.10;;;3.67;;
19111;SDS011;9688;51.906;8.376;2023-01-10T00:44:25;12.53;;;4.30;;
19111;SDS011;9688;51.906;8.376;2023-01-10T00:47:10;9.07;;;4.50;;
19111;SDS011;9688;51.906;8.376;2023-01-10T00:49:56;7.97;;;4.40;;
19111;SDS011;9688;51.906;8.376;2023-01-10T00:52:43;8.53;;;5.23;;
19111;SDS011;9688;51.906;8.376;2023-01-10T00:55:28;12.57;;;5.43;;
19111;SDS011;9688;51.906;8.376;2023-01-10T00:58:16;18.40;;;6.57;;
19111;SDS011;9688;51.906;8.376;2023-01-10T01:01:01;10.27;;;5.50;;
19111;SDS011;9688;51.906;8.376;2023-01-10T01:03:47;13.47;;;5.70;;
19111;SDS011;9688;51.906;8.376;2023-01-10T01:06:32;12.87;;;6.23;;
19111;SDS011;9688;51.906;8.376;2023-01-10T01:09:18;14.67;;;6.57;;
19111;SDS011;9688;51.906;8.376;2023-01-10T01:12:03;17.53;;;7.90;;
19111;SDS011;9688;51.906;8.376;2023-01-10T01:14:50;19.13;;;8.30;;
19111;SDS011;9688;51.906;8.376;2023-01-10T01:17:36;14.70;;;7.70;;
19111;SDS011;9688;51.906;8.376;2023-01-10T01:20:22;17.07;;;8.63;;
19111;SDS011;9688;51.906;8.376;2023-01-10T01:23:07;18.17;;;8.10;;
19111;SDS011;9688;51.906;8.376;2023-01-10T01:25:53;24.87;;;8.80;;
19111;SDS011;9688;51.906;8.376;2023-01-10T01:28:40;21.73;;;9.03;;
19111;SDS011;9688;51.906;8.376;2023-01-10T01:31:27;21.70;;;8.77;;
19111;SDS011;9688;51.906;8.376;2023-01-10T01:34:12;24.80;;;9.60;;
19111;SDS011;9688;51.906;8.376;2023-01-10T01:36:59;22.37;;;8.80;;
19111;SDS011;9688;51.906;8.376;2023-01-10T01:39:44;19.60;;;9.10;;
19111;SDS011;9688;51.906;8.376;2023-01-10T01:42:31;24.10;;;9.43;;
19111;SDS011;9688;51.906;8.376;2023-01-10T01:48:26;34.17;;;9.63;;
19111;SDS011;9688;51.906;8.376;2023-01-10T01:51:16;26.63;;;8.40;;
19111;SDS011;9688;51.906;8.376;2023-01-10T01:54:08;23.90;;;9.20;;
19111;SDS011;9688;51.906;8.376;2023-01-10T01:56:57;25.13;;;9.40;;
19111;SDS011;9688;51.906;8.376;2023-01-10T01:59:46;23.73;;;8.87;;
19111;SDS011;9688;51.906;8.376;2023-01-10T02:02:34;23.90;;;8.30;;
19111;SDS011;9688;51.906;8.376;2023-01-10T02:05:26;17.97;;;7.83;;
19111;SDS011;9688;51.906;8.376;2023-01-10T02:08:11;22.40;;;8.30;;
19111;SDS011;9688;51.906;8.376;2023-01-10T02:10:59;22.33;;;7.77;;
19111;SDS011;9688;51.906;8.376;2023-01-10T02:13:51;19.23;;;8.03;;
19111;SDS011;9688;51.906;8.376;2023-01-10T02:16:38;16.53;;;7.50;;
19111;SDS011;9688;51.906;8.376;2023-01-10T02:19:26;22.23;;;7.17;;
19111;SDS011;9688;51.906;8.376;2023-01-10T02:25:59;14.93;;;6.13;;
19111;SDS011;9688;51.906;8.376;2023-01-10T02:29:21;16.90;;;6.60;;
19111;SDS011;9688;51.906;8.376;2023-01-10T02:32:24;17.20;;;6.03;;
19111;SDS011;9688;51.906;8.376;2023-01-10T02:35:19;18.90;;;6.20;;
19111;SDS011;9688;51.906;8.376;2023-01-10T02:38:16;15.10;;;5.47;;
19111;SDS011;9688;51.906;8.376;2023-01-10T02:41:09;23.13;;;6.27;;
19111;SDS011;9688;51.906;8.376;2023-01-10T02:44:02;20.87;;;6.80;;
19111;SDS011;9688;51.906;8.376;2023-01-10T02:46:51;20.20;;;5.03;;
19111;SDS011;9688;51.906;8.376;2023-01-10T02:49:42;13.63;;;5.13;;
19111;SDS011;9688;51.906;8.376;2023-01-10T02:52:29;15.97;;;5.20;;
19111;SDS011;9688;51.906;8.376;2023-01-10T02:55:15;12.77;;;5.20;;
19111;SDS011;9688;51.906;8.376;2023-01-10T02:58:04;14.43;;;5.13;;
19111;SDS011;9688;51.906;8.376;2023-01-10T03:00:59;17.73;;;5.80;;
19111;SDS011;9688;51.906;8.376;2023-01-10T03:03:54;17.13;;;5.87;;
19111;SDS011;9688;51.906;8.376;2023-01-10T03:06:51;16.33;;;4.93;;
19111;SDS011;9688;51.906;8.376;2023-01-10T03:09:43;20.50;;;5.57;;
19111;SDS011;9688;51.906;8.376;2023-01-10T03:12:39;20.73;;;5.60;;
19111;SDS011;9688;51.906;8.376;2023-01-10T03:15:30;17.53;;;5.40;;
19111;SDS011;9688;51.906;8.376;2023-01-10T03:18:21;19.67;;;5.67;;
19111;SDS011;9688;51.906;8.376;2023-01-10T03:21:12;16.20;;;5.57;;
19111;SDS011;9688;51.906;8.376;2023-01-10T03:24:01;14.63;;;5.43;;
19111;SDS011;9688;51.906;8.376;2023-01-10T03:26:52;11.77;;;5.03;;
19111;SDS011;9688;51.906;8.376;2023-01-10T03:29:42;19.47;;;5.80;;
19111;SDS011;9688;51.906;8.376;2023-01-10T03:32:33;19.33;;;6.00;;
19111;SDS011;9688;51.906;8.376;2023-01-10T03:35:19;21.93;;;6.13;;
19111;SDS011;9688;51.906;8.376;2023-01-10T03:38:08;18.40;;;6.27;;
19111;SDS011;9688;51.906;8.376;2023-01-10T03:41:02;15.60;;;6.40;;
19111;SDS011;9688;51.906;8.376;2023-01-10T03:43:56;16.37;;;6.90;;
19111;SDS011;9688;51.906;8.376;2023-01-10T03:47:08;23.07;;;7.13;;
19111;SDS011;9688;51.906;8.376;2023-01-10T03:50:00;21.67;;;7.43;;
19111;SDS011;9688;51.906;8.376;2023-01-10T03:52:52;18.87;;;6.70;;
19111;SDS011;9688;51.906;8.376;2023-01-10T03:55:38;19.57;;;7.13;;
19111;SDS011;9688;51.906;8.376;2023-01-10T03:58:28;20.17;;;7.17;;
19111;SDS011;9688;51.906;8.376;2023-01-10T04:01:14;19.70;;;6.40;;
19111;SDS011;9688;51.906;8.376;2023-01-10T04:04:00;22.03;;;7.70;;
19111;SDS011;9688;51.906;8.376;2023-01-10T04:06:47;19.50;;;6.67;;
19111;SDS011;9688;51.906;8.376;2023-01-10T04:09:32;19.23;;;6.50;;
19111;SDS011;9688;51.906;8.376;2023-01-10T04:12:18;22.67;;;7.60;;
19111;SDS011;9688;51.906;8.376;2023-01-10T04:15:06;18.43;;;7.30;;
19111;SDS011;9688;51.906;8.376;2023-01-10T04:17:52;18.37;;;7.17;;
19111;SDS011;9688;51.906;8.376;2023-01-10T04:20:37;23.97;;;7.10;;
19111;SDS011;9688;51.906;8.376;2023-01-10T04:23:23;16.97;;;7.57;;
19111;SDS011;9688;51.906;8.376;2023-01-10T04:26:08;21.53;;;7.13;;
19111;SDS011;9688;51.906;8.376;2023-01-10T04:28:53;25.00;;;7.50;;
19111;SDS011;9688;51.906;8.376;2023-01-10T04:31:40;24.13;;;7.63;;
19111;SDS011;9688;51.906;8.376;2023-01-10T04:34:25;22.13;;;7.03;;
19111;SDS011;9688;51.906;8.376;2023-01-10T04:37:11;20.50;;;7.07;;
19111;SDS011;9688;51.906;8.376;2023-01-10T04:39:57;17.53;;;7.23;;
19111;SDS011;9688;51.906;8.376;2023-01-10T04:42:42;16.03;;;6.40;;
19111;SDS011;9688;51.906;8.376;2023-01-10T04:45:28;16.00;;;6.90;;
19111;SDS011;9688;51.906;8.376;2023-01-10T04:48:15;21.40;;;6.83;;
19111;SDS011;9688;51.906;8.376;2023-01-10T04:51:01;16.50;;;5.67;;
19111;SDS011;9688;51.906;8.376;2023-01-10T04:53:47;15.50;;;6.47;;
19111;SDS011;9688;51.906;8.376;2023-01-10T04:56:32;16.97;;;6.47;;
19111;SDS011;9688;51.906;8.376;2023-01-10T04:59:18;19.40;;;6.57;;
19111;SDS011;9688;51.906;8.376;2023-01-10T05:02:04;22.40;;;5.60;;
19111;SDS011;9688;51.906;8.376;2023-01-10T05:04:51;15.80;;;5.53;;
19111;SDS011;9688;51.906;8.376;2023-01-10T05:07:36;20.50;;;6.20;;
19111;SDS011;9688;51.906;8.376;2023-01-10T05:10:22;20.73;;;6.10;;
19111;SDS011;9688;51.906;8.376;2023-01-10T05:13:08;17.50;;;5.63;;
19111;SDS011;9688;51.906;8.376;2023-01-10T05:15:53;20.20;;;6.20;;
19111;SDS011;9688;51.906;8.376;2023-01-10T05:18:39;16.47;;;6.27;;
19111;SDS011;9688;51.906;8.376;2023-01-10T05:21:26;18.40;;;6.40;;
19111;SDS011;9688;51.906;8.376;2023-01-10T05:24:11;19.40;;;6.03;;
19111;SDS011;9688;51.906;8.376;2023-01-10T05:26:57;14.90;;;5.83;;
19111;SDS011;9688;51.906;8.376;2023-01-10T05:29:42;12.83;;;5.27;;
19111;SDS011;9688;51.906;8.376;2023-01-10T05:32:31;20.60;;;5.80;;
19111;SDS011;9688;51.906;8.376;2023-01-10T05:35:17;20.33;;;6.43;;
19111;SDS011;9688;51.906;8.376;2023-01-10T05:38:04;19.50;;;6.17;;
19111;SDS011;9688;51.906;8.376;2023-01-10T05:40:53;15.97;;;5.73;;
19111;SDS011;9688;51.906;8.376;2023-01-10T05:43:39;14.03;;;5.63;;
19111;SDS011;9688;51.906;8.376;2023-01-10T05:46:24;14.07;;;5.57;;
19111;SDS011;9688;51.906;8.376;2023-01-10T05:49:10;18.70;;;6.87;;
19111;SDS011;9688;51.906;8.376;2023-01-10T05:51:58;20.90;;;6.43;;
19111;SDS011;9688;51.906;8.376;2023-01-10T05:54:45;18.37;;;6.63;;
19111;SDS011;9688;51.906;8.376;2023-01-10T05:57:31;19.93;;;7.13;;
19111;SDS011;9688;51.906;8.376;2023-01-10T06:00:17;20.63;;;7.70;;
19111;SDS011;9688;51.906;8.376;2023-01-10T06:03:03;17.30;;;6.73;;
19111;SDS011;9688;51.906;8.376;2023-01-10T06:05:49;20.80;;;7.00;;
19111;SDS011;9688;51.906;8.376;2023-01-10T06:08:35;19.77;;;6.30;;
19111;SDS011;9688;51.906;8.376;2023-01-10T06:11:22;19.00;;;6.70;;
19111;SDS011;9688;51.906;8.376;2023-01-10T06:14:12;14.73;;;6.40;;
19111;SDS011;9688;51.906;8.376;2023-01-10T06:17:01;32.17;;;7.90;;
19111;SDS011;9688;51.906;8.376;2023-01-10T06:19:51;19.03;;;7.30;;
19111;SDS011;9688;51.906;8.376;2023-01-10T06:22:38;20.40;;;7.73;;
19111;SDS011;9688;51.906;8.376;2023-01-10T06:25:24;18.07;;;7.50;;
19111;SDS011;9688;51.906;8.376;2023-01-10T06:28:12;20.70;;;7.90;;
19111;SDS011;9688;51.906;8.376;2023-01-10T06:30:58;17.73;;;7.13;;
19111;SDS011;9688;51.906;8.376;2023-01-10T06:33:43;23.83;;;7.63;;
19111;SDS011;9688;51.906;8.376;2023-01-10T06:36:29;24.27;;;7.90;;
19111;SDS011;9688;51.906;8.376;2023-01-10T06:39:15;18.97;;;7.67;;
19111;SDS011;9688;51.906;8.376;2023-01-10T06:42:01;19.00;;;7.23;;
19111;SDS011;9688;51.906;8.376;2023-01-10T06:44:49;19.40;;;7.57;;
19111;SDS011;9688;51.906;8.376;2023-01-10T06:47:35;19.37;;;7.07;;
19111;SDS011;9688;51.906;8.376;2023-01-10T06:50:21;27.27;;;7.80;;
19111;SDS011;9688;51.906;8.376;2023-01-10T06:53:07;25.60;;;7.87;;
19111;SDS011;9688;51.906;8.376;2023-01-10T06:55:53;22.27;;;7.90;;
19111;SDS011;9688;51.906;8.376;2023-01-10T06:58:40;21.73;;;8.33;;
19111;SDS011;9688;51.906;8.376;2023-01-10T07:01:28;22.83;;;8.13;;
19111;SDS011;9688;51.906;8.376;2023-01-10T07:04:14;20.63;;;8.67;;
19111;SDS011;9688;51.906;8.376;2023-01-10T07:07:04;15.27;;;7.50;;
19111;SDS011;9688;51.906;8.376;2023-01-10T07:09:52;16.23;;;8.83;;
19111;SDS011;9688;51.906;8.376;2023-01-10T07:12:38;16.03;;;7.90;;
19111;SDS011;9688;51.906;8.376;2023-01-10T07:15:24;22.83;;;9.07;;
19111;SDS011;9688;51.906;8.376;2023-01-10T07:18:12;21.53;;;7.50;;
19111;SDS011;9688;51.906;8.376;2023-01-10T07:20:58;24.20;;;8.33;;
19111;SDS011;9688;51.906;8.376;2023-01-10T07:23:46;19.80;;;8.47;;
19111;SDS011;9688;51.906;8.376;2023-01-10T07:26:32;21.17;;;7.23;;
19111;SDS011;9688;51.906;8.376;2023-01-10T07:29:17;19.00;;;7.63;;
19111;SDS011;9688;51.906;8.376;2023-01-10T07:32:03;27.77;;;8.73;;
19111;SDS011;9688;51.906;8.376;2023-01-10T07:34:51;28.10;;;10.33;;
19111;SDS011;9688;51.906;8.376;2023-01-10T07:37:36;21.23;;;8.37;;
19111;SDS011;9688;51.906;8.376;2023-01-10T07:40:22;28.13;;;10.40;;
19111;SDS011;9688;51.906;8.376;2023-01-10T07:43:08;23.90;;;8.77;;
19111;SDS011;9688;51.906;8.376;2023-01-10T07:45:56;18.00;;;6.63;;
19111;SDS011;9688;51.906;8.376;2023-01-10T07:48:42;17.57;;;6.47;;
19111;SDS011;9688;51.906;8.376;2023-01-10T07:51:31;19.97;;;7.03;;
19111;SDS011;9688;51.906;8.376;2023-01-10T07:54:16;17.60;;;6.33;;
19111;SDS011;9688;51.906;8.376;2023-01-10T07:57:02;17.97;;;6.67;;
19111;SDS011;9688;51.906;8.376;2023-01-10T07:59:48;22.70;;;7.13;;
19111;SDS011;9688;51.906;8.376;2023-01-10T08:02:35;34.70;;;7.00;;
19111;SDS011;9688;51.906;8.376;2023-01-10T08:05:22;21.83;;;6.07;;
19111;SDS011;9688;51.906;8.376;2023-01-10T08:08:11;22.67;;;6.43;;
19111;SDS011;9688;51.906;8.376;2023-01-10T08:10:57;26.07;;;6.90;;
19111;SDS011;9688;51.906;8.376;2023-01-10T08:13:45;48.43;;;8.00;;
19111;SDS011;9688;51.906;8.376;2023-01-10T08:16:31;59.73;;;9.47;;
19111;SDS011;9688;51.906;8.376;2023-01-10T08:19:17;32.47;;;8.00;;
19111;SDS011;9688;51.906;8.376;2023-01-10T08:22:02;23.60;;;6.43;;
19111;SDS011;9688;51.906;8.376;2023-01-10T08:24:51;30.57;;;8.37;;
19111;SDS011;9688;51.906;8.376;2023-01-10T08:27:40;51.40;;;8.97;;
19111;SDS011;9688;51.906;8.376;2023-01-10T08:30:27;56.37;;;8.30;;
19111;SDS011;9688;51.906;8.376;2023-01-10T08:33:12;34.83;;;6.83;;
19111;SDS011;9688;51.906;8.376;2023-01-10T08:35:58;106.03;;;12.70;;
19111;SDS011;9688;51.906;8.376;2023-01-10T08:38:44;38.73;;;8.43;;
19111;SDS011;9688;51.906;8.376;2023-01-10T08:41:32;29.63;;;6.67;;
19111;SDS011;9688;51.906;8.376;2023-01-10T08:44:18;50.43;;;9.30;;
19111;SDS011;9688;51.906;8.376;2023-01-10T08:47:04;107.27;;;12.23;;
19111;SDS011;9688;51.906;8.376;2023-01-10T08:49:49;44.73;;;7.80;;
19111;SDS011;9688;51.906;8.376;2023-01-10T08:52:35;46.70;;;9.10;;
19111;SDS011;9688;51.906;8.376;2023-01-10T08:55:22;29.50;;;6.87;;
19111;SDS011;9688;51.906;8.376;2023-01-10T08:58:09;21.57;;;6.53;;
19111;SDS011;9688;51.906;8.376;2023-01-10T09:00:55;39.03;;;7.63;;
19111;SDS011;9688;51.906;8.376;2023-01-10T09:03:40;36.50;;;7.67;;
19111;SDS011;9688;51.906;8.376;2023-01-10T09:06:27;21.90;;;7.20;;
19111;SDS011;9688;51.906;8.376;2023-01-10T09:09:18;31.23;;;6.53;;
19111;SDS011;9688;51.906;8.376;2023-01-10T09:12:06;40.47;;;8.93;;
19111;SDS011;9688;51.906;8.376;2023-01-10T09:15:08;27.00;;;8.30;;
19111;SDS011;9688;51.906;8.376;2023-01-10T09:17:54;21.63;;;6.37;;
19111;SDS011;9688;51.906;8.376;2023-01-10T09:20:40;41.80;;;6.97;;
19111;SDS011;9688;51.906;8.376;2023-01-10T09:23:27;41.33;;;7.77;;
19111;SDS011;9688;51.906;8.376;2023-01-10T09:26:13;39.27;;;8.43;;
19111;SDS011;9688;51.906;8.376;2023-01-10T09:28:59;33.47;;;6.73;;
19111;SDS011;9688;51.906;8.376;2023-01-10T09:31:46;78.63;;;11.77;;
19111;SDS011;9688;51.906;8.376;2023-01-10T09:34:31;33.33;;;7.07;;
19111;SDS011;9688;51.906;8.376;2023-01-10T09:37:17;22.40;;;5.90;;
19111;SDS011;9688;51.906;8.376;2023-01-10T09:40:05;28.80;;;7.10;;
19111;SDS011;9688;51.906;8.376;2023-01-10T09:42:55;22.37;;;6.77;;
19111;SDS011;9688;51.906;8.376;2023-01-10T09:45:54;23.27;;;7.07;;
19111;SDS011;9688;51.906;8.376;2023-01-10T09:48:53;26.60;;;7.57;;
19111;SDS011;9688;51.906;8.376;2023-01-10T09:51:45;28.30;;;7.77;;
19111;SDS011;9688;51.906;8.376;2023-01-10T09:54:35;28.57;;;7.37;;
19111;SDS011;9688;51.906;8.376;2023-01-10T09:57:24;31.70;;;8.50;;
19111;SDS011;9688;51.906;8.376;2023-01-10T10:00:14;31.33;;;8.60;;
19111;SDS011;9688;51.906;8.376;2023-01-10T10:03:03;19.77;;;7.07;;
19111;SDS011;9688;51.906;8.376;2023-01-10T10:05:56;22.77;;;6.77;;
19111;SDS011;9688;51.906;8.376;2023-01-10T10:08:43;31.33;;;7.40;;
19111;SDS011;9688;51.906;8.376;2023-01-10T10:11:36;29.97;;;7.90;;
19111;SDS011;9688;51.906;8.376;2023-01-10T10:14:33;33.23;;;7.63;;
19111;SDS011;9688;51.906;8.376;2023-01-10T10:17:36;28.20;;;7.10;;
19111;SDS011;9688;51.906;8.376;2023-01-10T10:20:30;26.60;;;8.03;;
19111;SDS011;9688;51.906;8.376;2023-01-10T10:23:41;24.03;;;7.00;;
19111;SDS011;9688;51.906;8.376;2023-01-10T10:26:46;24.23;;;8.00;;
19111;SDS011;9688;51.906;8.376;2023-01-10T10:29:45;26.93;;;8.27;;
19111;SDS011;9688;51.906;8.376;2023-01-10T10:32:55;43.20;;;8.97;;
19111;SDS011;9688;51.906;8.376;2023-01-10T10:35:49;29.60;;;8.47;;
19111;SDS011;9688;51.906;8.376;2023-01-10T10:38:43;29.77;;;8.43;;
19111;SDS011;9688;51.906;8.376;2023-01-10T10:41:33;33.10;;;9.07;;
19111;SDS011;9688;51.906;8.376;2023-01-10T10:44:28;21.43;;;7.40;;
19111;SDS011;9688;51.906;8.376;2023-01-10T10:47:22;29.30;;;8.03;;
19111;SDS011;9688;51.906;8.376;2023-01-10T10:50:16;25.80;;;8.40;;
19111;SDS011;9688;51.906;8.376;2023-01-10T10:53:09;27.90;;;8.03;;
19111;SDS011;9688;51.906;8.376;2023-01-10T10:55:57;32.73;;;7.80;;
19111;SDS011;9688;51.906;8.376;2023-01-10T10:58:44;33.77;;;8.53;;
19111;SDS011;9688;51.906;8.376;2023-01-10T11:01:33;29.63;;;9.40;;
19111;SDS011;9688;51.906;8.376;2023-01-10T11:04:20;29.07;;;7.57;;
19111;SDS011;9688;51.906;8.376;2023-01-10T11:07:07;26.43;;;7.83;;
19111;SDS011;9688;51.906;8.376;2023-01-10T11:09:56;30.57;;;7.73;;
19111;SDS011;9688;51.906;8.376;2023-01-10T11:13:18;36.00;;;8.30;;
19111;SDS011;9688;51.906;8.376;2023-01-10T11:16:21;33.43;;;8.70;;
19111;SDS011;9688;51.906;8.376;2023-01-10T11:19:15;23.90;;;6.60;;
19111;SDS011;9688;51.906;8.376;2023-01-10T11:22:03;31.90;;;6.93;;
19111;SDS011;9688;51.906;8.376;2023-01-10T11:24:53;28.63;;;8.03;;
19111;SDS011;9688;51.906;8.376;2023-01-10T11:27:42;22.77;;;6.70;;
19111;SDS011;9688;51.906;8.376;2023-01-10T11:30:33;33.03;;;8.87;;
19111;SDS011;9688;51.906;8.376;2023-01-10T11:33:20;19.17;;;6.50;;
19111;SDS011;9688;51.906;8.376;2023-01-10T11:36:10;22.60;;;6.03;;
19111;SDS011;9688;51.906;8.376;2023-01-10T11:39:00;22.20;;;6.37;;
19111;SDS011;9688;51.906;8.376;2023-01-10T11:41:47;31.83;;;7.20;;
19111;SDS011;9688;51.906;8.376;2023-01-10T11:44:37;22.57;;;6.27;;
19111;SDS011;9688;51.906;8.376;2023-01-10T11:47:29;23.40;;;6.67;;
19111;SDS011;9688;51.906;8.376;2023-01-10T11:50:18;26.93;;;6.10;;
19111;SDS011;9688;51.906;8.376;2023-01-10T11:53:06;21.50;;;6.00;;
19111;SDS011;9688;51.906;8.376;2023-01-10T11:56:21;25.23;;;5.70;;
19111;SDS011;9688;51.906;8.376;2023-01-10T11:59:11;14.07;;;5.70;;
19111;SDS011;9688;51.906;8.376;2023-01-10T12:02:00;21.67;;;6.63;;
19111;SDS011;9688;51.906;8.376;2023-01-10T12:04:58;30.43;;;6.90;;
19111;SDS011;9688;51.906;8.376;2023-01-10T12:07:53;23.73;;;6.53;;
19111;SDS011;9688;51.906;8.376;2023-01-10T12:10:39;17.77;;;6.20;;
19111;SDS011;9688;51.906;8.376;2023-01-10T12:13:26;19.20;;;5.83;;
19111;SDS011;9688;51.906;8.376;2023-01-10T12:16:14;25.23;;;5.83;;
19111;SDS011;9688;51.906;8.376;2023-01-10T12:19:02;28.60;;;6.50;;
19111;SDS011;9688;51.906;8.376;2023-01-10T12:21:54;27.33;;;6.47;;
19111;SDS011;9688;51.906;8.376;2023-01-10T12:24:46;21.03;;;5.53;;
19111;SDS011;9688;51.906;8.376;2023-01-10T12:27:56;23.13;;;5.77;;
19111;SDS011;9688;51.906;8.376;2023-01-10T12:31:17;24.10;;;5.73;;
19111;SDS011;9688;51.906;8.376;2023-01-10T12:34:09;24.03;;;6.10;;
19111;SDS011;9688;51.906;8.376;2023-01-10T12:37:06;21.90;;;6.07;;
19111;SDS011;9688;51.906;8.376;2023-01-10T12:39:59;17.27;;;5.40;;
19111;SDS011;9688;51.906;8.376;2023-01-10T12:43:02;29.00;;;7.00;;
19111;SDS011;9688;51.906;8.376;2023-01-10T12:46:18;21.83;;;4.80;;
19111;SDS011;9688;51.906;8.376;2023-01-10T12:49:11;23.03;;;6.13;;
19111;SDS011;9688;51.906;8.376;2023-01-10T12:52:05;20.17;;;5.70;;
19111;SDS011;9688;51.906;8.376;2023-01-10T12:54:58;25.87;;;5.67;;
19111;SDS011;9688;51.906;8.376;2023-01-10T12:57:46;23.00;;;5.17;;
19111;SDS011;9688;51.906;8.376;2023-01-10T13:00:38;27.20;;;5.90;;
19111;SDS011;9688;51.906;8.376;2023-01-10T13:03:29;23.40;;;5.03;;
19111;SDS011;9688;51.906;8.376;2023-01-10T13:06:20;18.97;;;4.97;;
19111;SDS011;9688;51.906;8.376;2023-01-10T13:09:12;19.87;;;4.07;;
19111;SDS011;9688;51.906;8.376;2023-01-10T13:12:03;22.83;;;4.50;;
19111;SDS011;9688;51.906;8.376;2023-01-10T13:14:59;18.23;;;4.60;;
19111;SDS011;9688;51.906;8.376;2023-01-10T13:17:51;21.47;;;4.87;;
19111;SDS011;9688;51.906;8.376;2023-01-10T13:20:41;19.90;;;4.77;;
19111;SDS011;9688;51.906;8.376;2023-01-10T13:23:30;27.63;;;5.00;;
19111;SDS011;9688;51.906;8.376;2023-01-10T13:26:22;13.57;;;3.97;;
19111;SDS011;9688;51.906;8.376;2023-01-10T13:29:09;22.03;;;4.70;;
19111;SDS011;9688;51.906;8.376;2023-01-10T13:31:57;21.37;;;5.53;;
19111;SDS011;9688;51.906;8.376;2023-01-10T13:34:46;18.03;;;4.30;;
19111;SDS011;9688;51.906;8.376;2023-01-10T13:37:34;27.87;;;4.80;;
19111;SDS011;9688;51.906;8.376;2023-01-10T13:40:23;20.50;;;4.10;;
19111;SDS011;9688;51.906;8.376;2023-01-10T13:46:50;15.73;;;3.97;;
19111;SDS011;9688;51.906;8.376;2023-01-10T13:49:39;19.50;;;4.43;;
19111;SDS011;9688;51.906;8.376;2023-01-10T13:52:29;18.13;;;4.27;;
19111;SDS011;9688;51.906;8.376;2023-01-10T13:55:27;22.00;;;6.20;;
19111;SDS011;9688;51.906;8.376;2023-01-10T14:01:46;17.43;;;3.50;;
19111;SDS011;9688;51.906;8.376;2023-01-10T14:04:53;19.30;;;3.90;;
19111;SDS011;9688;51.906;8.376;2023-01-10T14:07:44;19.80;;;4.20;;
19111;SDS011;9688;51.906;8.376;2023-01-10T14:10:33;10.03;;;3.77;;
19111;SDS011;9688;51.906;8.376;2023-01-10T14:13:20;18.57;;;3.83;;
19111;SDS011;9688;51.906;8.376;2023-01-10T14:19:22;15.30;;;3.63;;
19111;SDS011;9688;51.906;8.376;2023-01-10T14:22:23;20.77;;;4.50;;
19111;SDS011;9688;51.906;8.376;2023-01-10T14:25:14;12.90;;;3.37;;
19111;SDS011;9688;51.906;8.376;2023-01-10T14:28:13;17.67;;;3.40;;
19111;SDS011;9688;51.906;8.376;2023-01-10T14:31:05;13.97;;;3.20;;
19111;SDS011;9688;51.906;8.376;2023-01-10T14:33:56;15.83;;;3.60;;
19111;SDS011;9688;51.906;8.376;2023-01-10T14:36:47;16.77;;;4.07;;
19111;SDS011;9688;51.906;8.376;2023-01-10T14:39:36;16.97;;;4.03;;
19111;SDS011;9688;51.906;8.376;2023-01-10T14:42:22;18.43;;;3.93;;
19111;SDS011;9688;51.906;8.376;2023-01-10T14:45:16;19.47;;;4.17;;
19111;SDS011;9688;51.906;8.376;2023-01-10T14:48:23;18.50;;;3.60;;
19111;SDS011;9688;51.906;8.376;2023-01-10T14:51:21;14.33;;;3.53;;
19111;SDS011;9688;51.906;8.376;2023-01-10T14:54:11;11.97;;;2.80;;
19111;SDS011;9688;51.906;8.376;2023-01-10T14:56:58;13.23;;;3.30;;
19111;SDS011;9688;51.906;8.376;2023-01-10T14:59:48;16.77;;;3.33;;
19111;SDS011;9688;51.906;8.376;2023-01-10T15:02:41;17.63;;;3.43;;
19111;SDS011;9688;51.906;8.376;2023-01-10T15:05:29;13.63;;;3.40;;
19111;SDS011;9688;51.906;8.376;2023-01-10T15:08:20;17.53;;;4.00;;
19111;SDS011;9688;51.906;8.376;2023-01-10T15:11:08;15.60;;;3.17;;
19111;SDS011;9688;51.906;8.376;2023-01-10T15:13:57;14.03;;;3.83;;
19111;SDS011;9688;51.906;8.376;2023-01-10T15:16:51;19.50;;;3.23;;
19111;SDS011;9688;51.906;8.376;2023-01-10T15:19:45;17.20;;;3.40;;
19111;SDS011;9688;51.906;8.376;2023-01-10T15:22:34;14.33;;;2.90;;
19111;SDS011;9688;51.906;8.376;2023-01-10T15:25:24;11.67;;;3.00;;
19111;SDS011;9688;51.906;8.376;2023-01-10T15:28:16;16.17;;;3.57;;
19111;SDS011;9688;51.906;8.376;2023-01-10T15:31:05;17.80;;;4.40;;
19111;SDS011;9688;51.906;8.376;2023-01-10T15:34:00;27.77;;;5.70;;
19111;SDS011;9688;51.906;8.376;2023-01-10T15:36:51;18.13;;;4.30;;
19111;SDS011;9688;51.906;8.376;2023-01-10T15:39:41;21.50;;;4.23;;
19111;SDS011;9688;51.906;8.376;2023-01-10T15:42:30;15.73;;;3.40;;
19111;SDS011;9688;51.906;8.376;2023-01-10T15:45:25;16.60;;;3.33;;
19111;SDS011;9688;51.906;8.376;2023-01-10T15:48:27;12.33;;;3.30;;
19111;SDS011;9688;51.906;8.376;2023-01-10T15:51:19;10.87;;;3.10;;
19111;SDS011;9688;51.906;8.376;2023-01-10T15:54:27;11.53;;;3.30;;
19111;SDS011;9688;51.906;8.376;2023-01-10T15:57:18;10.40;;;3.07;;
19111;SDS011;9688;51.906;8.376;2023-01-10T16:03:03;16.57;;;3.53;;
19111;SDS011;9688;51.906;8.376;2023-01-10T16:06:13;17.93;;;2.67;;
19111;SDS011;9688;51.906;8.376;2023-01-10T16:09:06;11.00;;;3.47;;
19111;SDS011;9688;51.906;8.376;2023-01-10T16:12:02;14.53;;;3.27;;
19111;SDS011;9688;51.906;8.376;2023-01-10T16:15:08;9.27;;;2.70;;
19111;SDS011;9688;51.906;8.376;2023-01-10T16:18:00;17.57;;;3.00;;
19111;SDS011;9688;51.906;8.376;2023-01-10T16:20:50;12.03;;;3.07;;
19111;SDS011;9688;51.906;8.376;2023-01-10T16:23:41;11.80;;;2.97;;
19111;SDS011;9688;51.906;8.376;2023-01-10T16:26:28;12.93;;;2.93;;
19111;SDS011;9688;51.906;8.376;2023-01-10T16:29:17;11.40;;;2.77;;
19111;SDS011;9688;51.906;8.376;2023-01-10T16:32:09;12.70;;;3.43;;
19111;SDS011;9688;51.906;8.376;2023-01-10T16:35:00;10.43;;;3.47;;
19111;SDS011;9688;51.906;8.376;2023-01-10T16:37:45;11.50;;;3.30;;
19111;SDS011;9688;51.906;8.376;2023-01-10T16:40:32;11.00;;;2.90;;
19111;SDS011;9688;51.906;8.376;2023-01-10T16:43:21;12.23;;;2.73;;
19111;SDS011;9688;51.906;8.376;2023-01-10T16:46:09;9.93;;;2.90;;
19111;SDS011;9688;51.906;8.376;2023-01-10T16:48:55;10.83;;;3.33;;
19111;SDS011;9688;51.906;8.376;2023-01-10T16:51:44;9.17;;;3.40;;
19111;SDS011;9688;51.906;8.376;2023-01-10T16:54:32;15.40;;;3.27;;
19111;SDS011;9688;51.906;8.376;2023-01-10T16:57:22;11.70;;;3.17;;
19111;SDS011;9688;51.906;8.376;2023-01-10T17:00:11;13.57;;;2.77;;
19111;SDS011;9688;51.906;8.376;2023-01-10T17:03:03;14.57;;;3.40;;
19111;SDS011;9688;51.906;8.376;2023-01-10T17:05:52;13.37;;;3.70;;
19111;SDS011;9688;51.906;8.376;2023-01-10T17:08:40;12.13;;;3.53;;
19111;SDS011;9688;51.906;8.376;2023-01-10T17:11:26;11.50;;;3.50;;
19111;SDS011;9688;51.906;8.376;2023-01-10T17:14:15;15.17;;;3.50;;
19111;SDS011;9688;51.906;8.376;2023-01-10T17:17:02;16.57;;;3.47;;
19111;SDS011;9688;51.906;8.376;2023-01-10T17:19:48;15.27;;;3.43;;
19111;SDS011;9688;51.906;8.376;2023-01-10T17:22:34;9.40;;;3.30;;
19111;SDS011;9688;51.906;8.376;2023-01-10T17:25:21;12.63;;;2.90;;